Time;durP1;ratioP1;P1;durP2;ratioP2;P2;SDS_P1;SDS_P2;PMS_P1;PMS_P2;Temp;Humidity;BMP_temperature;BMP_pressure;BME280_temperature;BME280_humidity;BME280_pressure;Samples;Min_cycle;Max_cycle;Signal;HPM_P1;HPM_P2
2021/12/03 00:00:26;;;;;;;50.35;30.30;;;;;;;;;;6244447;28;20053;-76
2021/12/03 00:03:28;;;;;;;45.90;29.98;;;;;;;;;;6253843;28;20874;-73
2021/12/03 00:06:34;;;;;;;48.15;29.85;;;;;;;;;;6239888;28;20045;-73
2021/12/03 00:09:37;;;;;;;49.83;31.75;;;;;;;;;;6250244;28;20052;-73
2021/12/03 00:12:39;;;;;;;52.60;32.72;;;;;;;;;;6242949;28;20496;-73
2021/12/03 00:15:41;;;;;;;48.30;30.15;;;;;;;;;;6240250;28;20049;-75
2021/12/03 00:18:43;;;;;;;48.65;30.92;;;;;;;;;;6250386;28;20140;-72
2021/12/03 00:21:45;;;;;;;48.90;30.80;;;;;;;;;;6255978;28;20124;-72
2021/12/03 00:24:48;;;;;;;50.90;30.85;;;;;;;;;;6269433;28;20462;-73
2021/12/03 00:27:50;;;;;;;53.40;31.33;;;;;;;;;;6252918;28;20136;-73
2021/12/03 00:30:51;;;;;;;52.45;31.67;;;;;;;;;;6241485;28;20109;-73
2021/12/03 00:33:53;;;;;;;51.50;30.10;;;;;;;;;;6258382;28;20045;-72
2021/12/03 00:36:55;;;;;;;49.30;31.60;;;;;;;;;;6236464;28;20160;-73
2021/12/03 00:39:58;;;;;;;49.45;31.17;;;;;;;;;;6240624;28;20046;-75
2021/12/03 00:43:02;;;;;;;53.88;32.78;;;;;;;;;;6246002;28;20077;-73
2021/12/03 00:46:06;;;;;;;49.28;32.15;;;;;;;;;;6252706;28;20052;-73
2021/12/03 00:49:08;;;;;;;47.13;31.42;;;;;;;;;;6246830;28;20103;-74
2021/12/03 00:52:09;;;;;;;50.50;32.70;;;;;;;;;;6247207;28;20132;-74
2021/12/03 00:55:13;;;;;;;55.78;34.58;;;;;;;;;;6251358;28;20819;-76
2021/12/03 00:58:15;;;;;;;48.42;32.75;;;;;;;;;;6249818;28;20118;-73
2021/12/03 01:01:17;;;;;;;54.03;33.20;;;;;;;;;;6241789;28;20171;-74
2021/12/03 01:04:19;;;;;;;53.28;33.30;;;;;;;;;;6242838;28;20412;-72
2021/12/03 01:07:21;;;;;;;51.85;33.30;;;;;;;;;;6244509;28;20053;-74
2021/12/03 01:10:24;;;;;;;53.25;33.03;;;;;;;;;;6248616;28;20166;-75
2021/12/03 01:13:26;;;;;;;46.73;30.17;;;;;;;;;;6255640;28;20045;-72
2021/12/03 01:16:28;;;;;;;44.33;30.13;;;;;;;;;;6245725;28;20110;-72
2021/12/03 01:19:30;;;;;;;45.80;29.23;;;;;;;;;;6262031;28;20481;-73
2021/12/03 01:22:32;;;;;;;44.60;29.45;;;;;;;;;;6264948;28;20060;-72
2021/12/03 01:25:35;;;;;;;46.42;28.40;;;;;;;;;;6272878;28;20141;-71
2021/12/03 01:28:37;;;;;;;44.92;29.13;;;;;;;;;;6281712;28;20517;-73
2021/12/03 01:31:39;;;;;;;47.75;28.98;;;;;;;;;;6262935;28;20081;-73
2021/12/03 01:34:40;;;;;;;45.60;28.98;;;;;;;;;;6281359;28;20040;-72
2021/12/03 01:37:42;;;;;;;48.30;29.98;;;;;;;;;;6269982;28;20106;-72
2021/12/03 01:40:46;;;;;;;46.88;29.60;;;;;;;;;;6273048;28;20052;-73
2021/12/03 01:43:47;;;;;;;45.88;29.92;;;;;;;;;;6272400;28;20187;-72
2021/12/03 01:46:49;;;;;;;43.47;28.58;;;;;;;;;;6273672;28;20052;-73
2021/12/03 01:49:51;;;;;;;43.95;28.85;;;;;;;;;;6280710;28;20207;-74
2021/12/03 01:52:52;;;;;;;42.47;27.52;;;;;;;;;;6268962;28;20083;-74
2021/12/03 01:55:59;;;;;;;44.65;29.30;;;;;;;;;;6274411;28;20066;-72
2021/12/03 01:59:01;;;;;;;46.17;27.88;;;;;;;;;;6289561;28;20127;-72
2021/12/03 02:02:03;;;;;;;44.20;28.30;;;;;;;;;;6270091;28;20128;-72
2021/12/03 02:05:06;;;;;;;51.20;31.40;;;;;;;;;;6266347;28;20164;-80
2021/12/03 02:08:08;;;;;;;46.85;30.85;;;;;;;;;;6269701;28;20101;-73
2021/12/03 02:11:12;;;;;;;50.53;31.45;;;;;;;;;;6255507;28;20064;-72
2021/12/03 02:14:13;;;;;;;44.85;29.48;;;;;;;;;;6276614;28;20090;-72
2021/12/03 02:17:15;;;;;;;44.13;29.30;;;;;;;;;;6264333;28;20119;-73
2021/12/03 02:20:18;;;;;;;45.00;29.67;;;;;;;;;;6269526;28;20052;-73
2021/12/03 02:23:25;;;;;;;45.30;29.48;;;;;;;;;;6280261;28;20056;-72
2021/12/03 02:26:27;;;;;;;43.63;27.92;;;;;;;;;;6271283;28;20524;-72
2021/12/03 02:29:31;;;;;;;48.42;30.08;;;;;;;;;;6272822;28;20139;-74
2021/12/03 02:32:32;;;;;;;49.00;31.10;;;;;;;;;;6279951;28;20723;-72
2021/12/03 02:35:34;;;;;;;44.67;26.98;;;;;;;;;;6265794;28;20819;-72
2021/12/03 02:38:37;;;;;;;41.33;27.40;;;;;;;;;;6274520;28;20048;-72
2021/12/03 02:41:39;;;;;;;41.83;28.63;;;;;;;;;;6266044;28;20041;-72
2021/12/03 02:44:41;;;;;;;44.08;28.17;;;;;;;;;;6277644;28;20080;-73
2021/12/03 02:47:43;;;;;;;43.95;28.88;;;;;;;;;;6262941;28;20526;-72
2021/12/03 02:50:45;;;;;;;42.55;28.00;;;;;;;;;;6265250;28;20188;-73
2021/12/03 02:53:48;;;;;;;43.58;27.80;;;;;;;;;;6269629;28;20091;-73
2021/12/03 02:56:49;;;;;;;44.20;27.90;;;;;;;;;;6265935;28;20132;-73
2021/12/03 02:59:51;;;;;;;42.05;28.10;;;;;;;;;;6276447;28;20166;-74
2021/12/03 03:02:53;;;;;;;43.05;27.83;;;;;;;;;;6259153;28;20041;-73
2021/12/03 03:05:56;;;;;;;45.40;28.25;;;;;;;;;;6264615;28;20040;-73
2021/12/03 03:09:01;;;;;;;44.83;26.83;;;;;;;;;;6281498;28;20127;-73
2021/12/03 03:12:02;;;;;;;43.10;28.13;;;;;;;;;;6277176;28;20553;-73
2021/12/03 03:15:06;;;;;;;42.70;26.67;;;;;;;;;;6275424;28;20487;-79
2021/12/03 03:18:13;;;;;;;44.88;27.02;;;;;;;;;;6263112;28;20083;-71
2021/12/03 03:21:15;;;;;;;41.85;26.75;;;;;;;;;;6273861;28;20495;-73
2021/12/03 03:24:19;;;;;;;45.35;27.58;;;;;;;;;;6280014;28;20463;-72
2021/12/03 03:27:22;;;;;;;42.85;27.42;;;;;;;;;;6267074;28;20051;-75
2021/12/03 03:30:23;;;;;;;42.08;26.33;;;;;;;;;;6280952;28;20595;-73
2021/12/03 03:33:25;;;;;;;41.03;25.85;;;;;;;;;;6289711;28;20135;-77
2021/12/03 03:36:27;;;;;;;42.47;27.33;;;;;;;;;;6270384;28;20045;-72
2021/12/03 03:39:32;;;;;;;39.97;27.00;;;;;;;;;;6281549;28;20090;-72
2021/12/03 03:42:34;;;;;;;42.53;26.90;;;;;;;;;;6272580;28;20041;-73
2021/12/03 03:45:38;;;;;;;42.13;27.73;;;;;;;;;;6268393;28;20116;-72
2021/12/03 03:48:39;;;;;;;46.10;27.83;;;;;;;;;;6273917;28;20127;-72
2021/12/03 03:51:41;;;;;;;45.00;25.98;;;;;;;;;;6267657;28;20070;-72
2021/12/03 03:54:44;;;;;;;44.85;27.50;;;;;;;;;;6281754;28;20123;-73
2021/12/03 03:57:46;;;;;;;45.15;27.63;;;;;;;;;;6250550;28;20053;-72
2021/12/03 04:00:48;;;;;;;43.03;28.25;;;;;;;;;;6265178;28;20133;-72
2021/12/03 04:03:50;;;;;;;46.47;26.90;;;;;;;;;;6276561;28;20056;-72
2021/12/03 04:06:53;;;;;;;46.17;27.30;;;;;;;;;;6273306;28;20102;-72
2021/12/03 04:09:56;;;;;;;43.95;27.60;;;;;;;;;;6278374;28;20049;-72
2021/12/03 04:12:58;;;;;;;48.22;29.30;;;;;;;;;;6268550;28;20060;-72
2021/12/03 04:16:00;;;;;;;41.45;25.98;;;;;;;;;;6262977;28;20049;-71
2021/12/03 04:19:02;;;;;;;44.60;27.35;;;;;;;;;;6274273;28;20075;-71
2021/12/03 04:22:04;;;;;;;42.47;27.73;;;;;;;;;;6283137;28;20049;-72
2021/12/03 04:25:12;;;;;;;44.85;27.90;;;;;;;;;;6241760;28;20046;-75
2021/12/03 04:28:14;;;;;;;47.47;28.98;;;;;;;;;;6252118;28;20052;-72
2021/12/03 04:31:16;;;;;;;47.95;28.80;;;;;;;;;;6253362;28;20509;-71
2021/12/03 04:34:17;;;;;;;45.97;27.73;;;;;;;;;;6267602;28;20049;-72
2021/12/03 04:37:20;;;;;;;44.72;25.92;;;;;;;;;;6259405;28;20045;-71
2021/12/03 04:40:25;;;;;;;45.78;27.38;;;;;;;;;;6266868;28;20055;-79
2021/12/03 04:43:26;;;;;;;44.33;26.85;;;;;;;;;;6270263;28;20477;-70
2021/12/03 04:46:28;;;;;;;43.00;27.30;;;;;;;;;;6254189;28;20153;-70
2021/12/03 04:49:30;;;;;;;40.15;26.23;;;;;;;;;;6260866;28;20095;-71
2021/12/03 04:52:32;;;;;;;45.28;26.92;;;;;;;;;;6249873;28;20049;-70
2021/12/03 04:55:35;;;;;;;44.65;26.75;;;;;;;;;;6247682;28;20045;-73
2021/12/03 04:58:37;;;;;;;46.00;27.63;;;;;;;;;;6255829;28;20178;-77
2021/12/03 05:01:40;;;;;;;47.50;28.85;;;;;;;;;;6234113;28;20049;-71
2021/12/03 05:04:41;;;;;;;47.53;28.55;;;;;;;;;;6250257;28;20053;-73
2021/12/03 05:07:57;;;;;;;46.72;29.63;;;;;;;;;;6239267;28;20049;-73
2021/12/03 05:11:00;;;;;;;50.00;30.00;;;;;;;;;;6248384;28;20038;-72
2021/12/03 05:14:01;;;;;;;48.00;29.75;;;;;;;;;;6257620;28;20124;-72
2021/12/03 05:17:04;;;;;;;52.40;29.38;;;;;;;;;;6238601;28;20172;-74
2021/12/03 05:20:07;;;;;;;49.40;29.23;;;;;;;;;;6251931;28;20046;-81
2021/12/03 05:23:09;;;;;;;50.63;29.55;;;;;;;;;;6263458;28;20499;-74
2021/12/03 05:26:12;;;;;;;50.08;29.63;;;;;;;;;;6270460;28;20562;-72
2021/12/03 05:29:14;;;;;;;48.13;29.13;;;;;;;;;;6275459;28;20171;-75
2021/12/03 05:32:17;;;;;;;48.60;29.17;;;;;;;;;;6259199;28;20069;-73
2021/12/03 05:35:19;;;;;;;45.25;28.80;;;;;;;;;;6267114;28;20045;-72
2021/12/03 05:38:20;;;;;;;46.95;28.70;;;;;;;;;;6280687;28;20138;-73
2021/12/03 05:41:23;;;;;;;51.60;29.92;;;;;;;;;;6269749;28;20323;-74
2021/12/03 05:44:25;;;;;;;56.03;31.90;;;;;;;;;;6278134;28;20048;-73
2021/12/03 05:47:27;;;;;;;52.50;30.90;;;;;;;;;;6259087;28;20124;-74
2021/12/03 05:50:29;;;;;;;49.80;30.20;;;;;;;;;;6265296;28;20033;-74
2021/12/03 05:53:31;;;;;;;51.88;31.15;;;;;;;;;;6282644;28;20396;-72
2021/12/03 05:56:35;;;;;;;50.83;30.85;;;;;;;;;;6277271;28;20174;-74
2021/12/03 05:59:37;;;;;;;57.85;31.63;;;;;;;;;;6292271;28;20036;-70
2021/12/03 06:02:39;;;;;;;54.20;30.73;;;;;;;;;;6276734;28;20067;-71
2021/12/03 06:05:40;;;;;;;54.67;30.88;;;;;;;;;;6273742;28;20087;-70
2021/12/03 06:08:42;;;;;;;51.63;31.15;;;;;;;;;;6285228;28;20124;-71
2021/12/03 06:11:45;;;;;;;53.92;31.20;;;;;;;;;;6272053;28;20048;-70
2021/12/03 06:14:47;;;;;;;53.45;30.20;;;;;;;;;;6273110;28;20068;-71
2021/12/03 06:17:49;;;;;;;52.78;29.88;;;;;;;;;;6263049;28;20066;-71
2021/12/03 06:20:50;;;;;;;54.45;30.85;;;;;;;;;;6268393;28;21643;-70
2021/12/03 06:23:52;;;;;;;54.65;30.80;;;;;;;;;;6278843;28;20131;-70
2021/12/03 06:26:55;;;;;;;51.22;30.98;;;;;;;;;;6271019;28;20070;-70
2021/12/03 06:29:57;;;;;;;49.80;30.85;;;;;;;;;;6287699;28;20110;-73
2021/12/03 06:32:59;;;;;;;51.35;31.23;;;;;;;;;;6276844;28;20049;-69
2021/12/03 06:36:00;;;;;;;54.75;32.35;;;;;;;;;;6281193;28;20557;-69
2021/12/03 06:39:02;;;;;;;55.80;30.95;;;;;;;;;;6282289;28;20060;-71
2021/12/03 06:42:06;;;;;;;55.42;31.80;;;;;;;;;;6283065;28;20060;-71
2021/12/03 06:45:09;;;;;;;56.38;32.60;;;;;;;;;;6286843;28;20094;-80
2021/12/03 06:48:11;;;;;;;51.37;29.83;;;;;;;;;;6272481;28;20187;-69
2021/12/03 06:51:13;;;;;;;59.95;32.92;;;;;;;;;;6280206;28;20093;-70
2021/12/03 06:54:23;;;;;;;52.88;32.10;;;;;;;;;;6270006;28;20056;-70
2021/12/03 06:57:27;;;;;;;60.08;34.17;;;;;;;;;;6284327;28;20088;-70
2021/12/03 07:00:28;;;;;;;57.35;33.17;;;;;;;;;;6284290;28;20888;-81
2021/12/03 07:03:30;;;;;;;55.65;31.65;;;;;;;;;;6288552;28;20183;-72
2021/12/03 07:06:31;;;;;;;52.60;32.22;;;;;;;;;;6302047;28;20135;-72
2021/12/03 07:09:33;;;;;;;54.58;31.10;;;;;;;;;;6296912;28;20040;-72
2021/12/03 07:12:36;;;;;;;56.80;32.70;;;;;;;;;;6286300;28;20131;-72
2021/12/03 07:15:38;;;;;;;54.13;32.30;;;;;;;;;;6275997;28;20207;-72
2021/12/03 07:18:40;;;;;;;54.05;32.72;;;;;;;;;;6279147;28;20064;-74
2021/12/03 07:21:42;;;;;;;52.50;31.60;;;;;;;;;;6275060;28;20085;-72
2021/12/03 07:24:44;;;;;;;56.22;32.58;;;;;;;;;;6284177;28;20175;-72
2021/12/03 07:27:47;;;;;;;48.40;31.73;;;;;;;;;;6273468;28;20109;-72
2021/12/03 07:30:49;;;;;;;52.03;31.40;;;;;;;;;;6282446;28;20096;-72
2021/12/03 07:33:53;;;;;;;52.20;30.58;;;;;;;;;;6282840;28;20044;-72
2021/12/03 07:36:55;;;;;;;47.22;28.98;;;;;;;;;;6278855;28;20045;-72
2021/12/03 07:39:58;;;;;;;47.80;27.73;;;;;;;;;;6279655;28;20040;-71
2021/12/03 07:43:01;;;;;;;45.80;28.83;;;;;;;;;;6274461;28;20045;-72
2021/12/03 07:46:03;;;;;;;51.08;28.75;;;;;;;;;;6273782;28;20340;-82
2021/12/03 07:49:05;;;;;;;41.75;28.15;;;;;;;;;;6283201;28;20056;-72
2021/12/03 07:52:07;;;;;;;43.58;27.20;;;;;;;;;;6276069;28;20048;-74
2021/12/03 07:55:09;;;;;;;41.83;27.75;;;;;;;;;;6280923;28;20045;-78
2021/12/03 07:58:12;;;;;;;46.50;26.70;;;;;;;;;;6280442;28;20084;-72
2021/12/03 08:01:14;;;;;;;41.10;25.63;;;;;;;;;;6266779;28;20063;-73
2021/12/03 08:04:16;;;;;;;42.55;25.83;;;;;;;;;;6276776;28;20045;-72
2021/12/03 08:07:19;;;;;;;39.53;25.67;;;;;;;;;;6274581;28;20052;-74
2021/12/03 08:10:21;;;;;;;44.50;27.67;;;;;;;;;;6280529;28;20090;-79
2021/12/03 08:13:24;;;;;;;39.80;26.02;;;;;;;;;;6281469;28;20176;-74
2021/12/03 08:16:25;;;;;;;37.13;25.15;;;;;;;;;;6272069;28;20186;-73
2021/12/03 08:19:27;;;;;;;39.80;25.63;;;;;;;;;;6273799;28;20118;-77
2021/12/03 08:22:29;;;;;;;36.65;24.50;;;;;;;;;;6258911;28;20444;-73
2021/12/03 08:25:30;;;;;;;34.58;24.15;;;;;;;;;;6252661;28;20056;-78
2021/12/03 08:28:35;;;;;;;35.92;23.55;;;;;;;;;;6257920;28;20073;-73
2021/12/03 08:31:38;;;;;;;39.72;24.45;;;;;;;;;;6247655;28;20241;-75
2021/12/03 08:34:40;;;;;;;38.35;23.15;;;;;;;;;;6260318;28;20049;-73
2021/12/03 08:37:45;;;;;;;33.22;21.75;;;;;;;;;;6243849;28;20806;-73
2021/12/03 08:40:46;;;;;;;30.63;20.75;;;;;;;;;;6249145;28;20041;-77
2021/12/03 08:43:50;;;;;;;30.88;21.70;;;;;;;;;;6252225;28;20752;-73
2021/12/03 08:46:57;;;;;;;36.03;24.20;;;;;;;;;;6241184;28;20100;-73
2021/12/03 08:50:01;;;;;;;34.33;21.85;;;;;;;;;;6250861;28;20033;-73
2021/12/03 08:53:20;;;;;;;30.30;21.60;;;;;;;;;;6246969;28;20049;-74
2021/12/03 08:56:22;;;;;;;42.85;25.17;;;;;;;;;;6249252;28;20562;-73
2021/12/03 08:59:26;;;;;;;40.97;25.95;;;;;;;;;;6255124;28;20128;-73
2021/12/03 09:02:27;;;;;;;37.55;26.52;;;;;;;;;;6244567;28;20056;-76
2021/12/03 09:05:30;;;;;;;42.78;25.52;;;;;;;;;;6242780;28;20049;-79
2021/12/03 09:08:32;;;;;;;36.33;25.77;;;;;;;;;;6256486;28;20049;-74
2021/12/03 09:11:35;;;;;;;35.50;23.98;;;;;;;;;;6238568;28;20037;-74
2021/12/03 09:14:40;;;;;;;39.72;25.35;;;;;;;;;;6253608;28;20208;-75
2021/12/03 09:17:53;;;;;;;34.78;25.90;;;;;;;;;;6227794;28;20041;-73
2021/12/03 09:21:00;;;;;;;33.85;24.80;;;;;;;;;;6242630;28;20067;-75
2021/12/03 09:24:09;;;;;;;40.83;25.05;;;;;;;;;;6283419;28;20040;-73
2021/12/03 09:27:11;;;;;;;33.00;24.80;;;;;;;;;;6276889;28;21207;-73
2021/12/03 09:30:16;;;;;;;37.15;25.20;;;;;;;;;;6280644;28;20044;-74
2021/12/03 09:33:19;;;;;;;35.25;24.80;;;;;;;;;;6275879;28;20209;-77
2021/12/03 09:36:21;;;;;;;38.85;24.42;;;;;;;;;;6271616;28;20076;-73
2021/12/03 09:39:23;;;;;;;32.25;21.95;;;;;;;;;;6281629;28;20054;-73
2021/12/03 09:42:26;;;;;;;29.63;21.77;;;;;;;;;;6273626;28;20044;-73
2021/12/03 09:45:30;;;;;;;31.73;21.70;;;;;;;;;;6264742;28;20200;-75
2021/12/03 09:48:42;;;;;;;28.40;21.40;;;;;;;;;;6282363;28;20520;-73
2021/12/03 09:51:51;;;;;;;19.13;13.95;;;;;;;;;;6274503;28;20120;-73
2021/12/03 09:54:57;;;;;;;27.70;20.55;;;;;;;;;;6278790;28;20048;-74
2021/12/03 09:58:05;;;;;;;27.50;20.83;;;;;;;;;;6266161;28;20488;-75
2021/12/03 10:01:11;;;;;;;27.42;19.17;;;;;;;;;;6274945;28;20056;-74
2021/12/03 10:04:34;;;;;;;25.65;17.95;;;;;;;;;;6281892;28;20127;-74
2021/12/03 10:14:59;;;;;;;16.77;13.90;;;;;;;;;;6324257;27;20126;-73
2021/12/03 10:18:07;;;;;;;29.30;21.52;;;;;;;;;;6272451;28;20056;-75
2021/12/03 10:21:20;;;;;;;32.67;22.92;;;;;;;;;;6273694;28;20048;-73
2021/12/03 10:38:04;;;;;;;24.90;20.02;;;;;;;;;;6276103;28;20114;-74
2021/12/03 10:47:50;;;;;;;25.92;18.95;;;;;;;;;;6248977;28;20044;-74
2021/12/03 10:51:09;;;;;;;24.27;18.45;;;;;;;;;;6286916;28;20044;-73
2021/12/03 10:54:19;;;;;;;28.15;18.80;;;;;;;;;;6290917;28;20392;-73
2021/12/03 10:57:52;;;;;;;21.23;17.67;;;;;;;;;;6272476;28;20064;-73
2021/12/03 11:01:41;;;;;;;24.13;18.98;;;;;;;;;;6272625;28;20049;-73
2021/12/03 11:12:14;;;;;;;30.08;19.33;;;;;;;;;;6272879;28;20052;-73
2021/12/03 11:29:08;;;;;;;28.55;20.77;;;;;;;;;;6268535;28;20060;-75
2021/12/03 13:25:46;;;;;;;11.85;6.72;;;;;;;;;;6254463;28;20135;-68
2021/12/03 14:09:46;;;;;;;9.55;5.40;;;;;;;;;;6291472;28;20044;-73
2021/12/03 14:37:08;;;;;;;18.90;6.72;;;;;;;;;;6279999;28;20059;-74
2021/12/03 14:44:02;;;;;;;11.90;6.43;;;;;;;;;;6273413;28;20056;-74
2021/12/03 14:54:16;;;;;;;8.65;6.45;;;;;;;;;;6183818;28;20394;-74
2021/12/03 14:57:29;;;;;;;7.18;5.32;;;;;;;;;;6248129;28;20053;-75
2021/12/03 15:00:35;;;;;;;9.77;5.63;;;;;;;;;;6259618;28;20112;-78
2021/12/03 15:04:01;;;;;;;12.07;6.18;;;;;;;;;;6263461;28;20067;-75
2021/12/03 15:07:12;;;;;;;11.10;6.43;;;;;;;;;;6271657;28;20051;-75
2021/12/03 15:10:21;;;;;;;18.98;7.22;;;;;;;;;;6283830;28;20081;-75
2021/12/03 15:13:46;;;;;;;10.95;7.28;;;;;;;;;;6288436;28;20171;-75
2021/12/03 15:20:33;;;;;;;13.40;6.78;;;;;;;;;;6269444;28;20037;-77
2021/12/03 15:27:09;;;;;;;14.30;7.03;;;;;;;;;;6246558;28;20392;-75
2021/12/03 15:30:27;;;;;;;9.15;5.88;;;;;;;;;;6256535;28;20128;-77
2021/12/03 15:33:45;;;;;;;11.57;5.75;;;;;;;;;;6254813;28;20131;-75
2021/12/03 15:37:05;;;;;;;8.73;6.05;;;;;;;;;;6253322;28;20090;-75
2021/12/03 15:40:27;;;;;;;12.00;5.57;;;;;;;;;;6276005;28;20522;-77
2021/12/03 16:07:11;;;;;;;;;;;;;;;;;;6259749;28;20048;-73
2021/12/03 16:10:19;;;;;;;9.60;5.13;;;;;;;;;;6277382;28;19924;-74
2021/12/03 16:13:30;;;;;;;9.32;4.57;;;;;;;;;;6286659;28;20057;-75
2021/12/03 16:23:47;;;;;;;5.40;3.55;;;;;;;;;;6199317;28;20046;-72
2021/12/03 16:27:11;;;;;;;5.47;3.55;;;;;;;;;;6273556;28;20044;-74
2021/12/03 16:44:04;;;;;;;9.85;4.30;;;;;;;;;;6292759;28;20040;-75
2021/12/03 16:47:13;;;;;;;8.25;4.45;;;;;;;;;;6273057;28;20135;-75
2021/12/03 16:53:46;;;;;;;6.82;4.47;;;;;;;;;;6296284;28;20056;-75
2021/12/03 16:56:50;;;;;;;8.20;4.30;;;;;;;;;;6274601;28;20047;-75
2021/12/03 16:59:53;;;;;;;9.77;5.68;;;;;;;;;;6294903;28;20079;-76
2021/12/03 17:02:58;;;;;;;6.38;4.30;;;;;;;;;;6285244;28;20143;-75
2021/12/03 17:12:55;;;;;;;9.90;4.85;;;;;;;;;;6282945;28;20049;-75
2021/12/03 17:30:00;;;;;;;7.95;4.72;;;;;;;;;;6292667;28;20131;-75
2021/12/03 17:49:49;;;;;;;13.05;6.40;;;;;;;;;;6255194;28;20135;-77
2021/12/03 17:56:13;;;;;;;10.80;6.18;;;;;;;;;;6284038;28;20049;-76
2021/12/03 17:59:18;;;;;;;13.65;6.28;;;;;;;;;;6297955;28;20044;-74
2021/12/03 18:02:27;;;;;;;11.35;5.60;;;;;;;;;;6272619;28;20294;-75
2021/12/03 18:05:45;;;;;;;12.70;6.05;;;;;;;;;;6271870;28;20188;-76
2021/12/03 18:08:52;;;;;;;9.75;5.72;;;;;;;;;;6279002;28;20056;-74
2021/12/03 18:12:18;;;;;;;8.98;5.80;;;;;;;;;;6259386;28;20064;-73
2021/12/03 18:48:44;;;;;;;12.50;6.28;;;;;;;;;;6270798;28;20622;-73
2021/12/03 18:51:53;;;;;;;10.73;6.25;;;;;;;;;;6275945;28;20044;-74
2021/12/03 18:55:00;;;;;;;11.55;6.07;;;;;;;;;;6289433;28;20056;-73
2021/12/03 18:58:06;;;;;;;10.80;6.10;;;;;;;;;;6286711;28;20049;-73
2021/12/03 19:01:07;;;;;;;11.23;6.50;;;;;;;;;;6280864;28;20187;-73
2021/12/03 19:04:18;;;;;;;13.20;5.85;;;;;;;;;;6288062;28;20048;-73
2021/12/03 19:07:23;;;;;;;10.82;6.10;;;;;;;;;;6285052;28;20063;-74
2021/12/03 19:10:28;;;;;;;9.70;6.90;;;;;;;;;;6287749;28;20040;-74
2021/12/03 19:13:36;;;;;;;13.68;8.10;;;;;;;;;;6301064;28;20051;-73
2021/12/03 19:16:37;;;;;;;11.80;6.97;;;;;;;;;;6284602;28;20049;-73
2021/12/03 19:19:42;;;;;;;12.07;6.93;;;;;;;;;;6296386;28;20151;-75
2021/12/03 19:22:44;;;;;;;14.30;6.90;;;;;;;;;;6284553;28;20064;-74
2021/12/03 19:25:47;;;;;;;10.65;6.82;;;;;;;;;;6286735;28;20117;-74
2021/12/03 19:28:50;;;;;;;14.05;7.22;;;;;;;;;;6294968;28;20053;-74
2021/12/03 19:31:52;;;;;;;18.63;7.90;;;;;;;;;;6281652;28;20422;-73
2021/12/03 19:34:54;;;;;;;16.85;7.20;;;;;;;;;;6284935;28;20102;-73
2021/12/03 19:37:57;;;;;;;11.82;7.05;;;;;;;;;;6282495;28;20127;-73
2021/12/03 19:41:08;;;;;;;11.77;6.57;;;;;;;;;;6279688;28;20133;-74
2021/12/03 19:44:12;;;;;;;19.17;7.75;;;;;;;;;;6263722;28;20068;-74
2021/12/03 19:47:14;;;;;;;13.18;7.00;;;;;;;;;;6253366;28;20552;-77
2021/12/03 19:50:21;;;;;;;11.75;6.50;;;;;;;;;;6260965;28;20099;-77
2021/12/03 19:53:28;;;;;;;13.30;7.22;;;;;;;;;;6266459;28;20062;-74
2021/12/03 19:56:33;;;;;;;14.18;7.03;;;;;;;;;;6260025;28;20057;-74
2021/12/03 19:59:35;;;;;;;14.07;7.40;;;;;;;;;;6268219;28;20173;-73
2021/12/03 20:02:36;;;;;;;15.60;7.97;;;;;;;;;;6247471;28;20496;-74
2021/12/03 20:05:38;;;;;;;11.32;6.82;;;;;;;;;;6250472;28;20405;-73
2021/12/03 20:08:40;;;;;;;11.85;7.47;;;;;;;;;;6274085;28;20153;-73
2021/12/03 20:11:45;;;;;;;12.50;7.70;;;;;;;;;;6278192;28;20041;-73
2021/12/03 20:14:49;;;;;;;20.35;7.75;;;;;;;;;;6267976;28;20053;-73
2021/12/03 20:17:54;;;;;;;15.98;7.93;;;;;;;;;;6256638;28;20048;-74
2021/12/03 20:20:58;;;;;;;17.83;8.35;;;;;;;;;;6265254;28;20061;-72
2021/12/03 20:24:17;;;;;;;21.55;8.90;;;;;;;;;;6269455;28;20434;-74
2021/12/03 20:27:23;;;;;;;17.48;10.18;;;;;;;;;;6267732;28;20044;-73
2021/12/03 20:30:34;;;;;;;20.35;12.10;;;;;;;;;;6258483;28;20477;-73
2021/12/03 20:36:54;;;;;;;20.02;12.88;;;;;;;;;;6245750;28;20032;-72
2021/12/03 20:39:56;;;;;;;18.20;11.98;;;;;;;;;;6269070;28;20053;-73
2021/12/03 20:43:10;;;;;;;21.90;13.35;;;;;;;;;;6259852;28;20053;-73
2021/12/03 20:49:38;;;;;;;105.53;50.42;;;;;;;;;;6259377;28;20084;-72
2021/12/03 20:52:44;;;;;;;147.27;62.20;;;;;;;;;;6249009;28;20045;-72
2021/12/03 21:09:10;;;;;;;46.47;27.70;;;;;;;;;;6292866;28;20053;-75
2021/12/03 21:12:18;;;;;;;33.42;19.70;;;;;;;;;;6290741;28;20052;-76
2021/12/03 21:15:25;;;;;;;29.02;18.73;;;;;;;;;;6290929;28;20053;-74
2021/12/03 21:18:33;;;;;;;32.70;18.98;;;;;;;;;;6294505;28;20048;-74
2021/12/03 21:21:39;;;;;;;31.20;17.77;;;;;;;;;;6281367;28;20058;-73
2021/12/03 21:24:42;;;;;;;29.63;18.52;;;;;;;;;;6295146;28;20048;-73
2021/12/03 21:27:52;;;;;;;30.40;18.83;;;;;;;;;;6260462;28;20559;-76
2021/12/03 21:31:00;;;;;;;33.80;20.02;;;;;;;;;;6255797;28;20060;-76
2021/12/03 21:41:20;;;;;;;33.80;19.15;;;;;;;;;;6261642;28;20389;-74
2021/12/03 21:44:22;;;;;;;32.08;19.10;;;;;;;;;;6284579;28;20479;-75
2021/12/03 21:47:28;;;;;;;33.03;19.83;;;;;;;;;;6260369;28;20065;-76
2021/12/03 21:50:29;;;;;;;33.78;19.02;;;;;;;;;;6293326;28;20135;-84
2021/12/03 21:53:31;;;;;;;33.78;20.52;;;;;;;;;;6302403;28;20040;-76
2021/12/03 21:56:32;;;;;;;37.72;19.77;;;;;;;;;;6287783;28;20513;-77
2021/12/03 21:59:34;;;;;;;30.17;19.08;;;;;;;;;;6287303;28;20089;-75
2021/12/03 22:02:37;;;;;;;33.30;18.98;;;;;;;;;;6282699;28;20059;-79
2021/12/03 22:05:39;;;;;;;30.20;19.00;;;;;;;;;;6287664;28;20181;-76
2021/12/03 22:08:41;;;;;;;30.40;17.90;;;;;;;;;;6290624;28;20075;-76
2021/12/03 22:11:42;;;;;;;30.27;18.75;;;;;;;;;;6277614;28;20119;-75
2021/12/03 22:14:45;;;;;;;29.85;17.65;;;;;;;;;;6287429;28;20060;-75
2021/12/03 22:17:48;;;;;;;28.25;17.35;;;;;;;;;;6279185;28;20052;-72
2021/12/03 22:20:50;;;;;;;34.00;18.85;;;;;;;;;;6282696;28;20106;-75
2021/12/03 22:23:52;;;;;;;34.13;19.13;;;;;;;;;;6292121;28;20044;-76
2021/12/03 22:26:54;;;;;;;33.50;18.15;;;;;;;;;;6286237;28;20457;-76
2021/12/03 22:29:56;;;;;;;29.17;18.35;;;;;;;;;;6302978;28;20048;-75
2021/12/03 22:32:59;;;;;;;28.80;17.17;;;;;;;;;;6281508;28;20068;-75
2021/12/03 22:36:01;;;;;;;27.90;16.38;;;;;;;;;;6287929;28;20178;-84
2021/12/03 22:39:03;;;;;;;28.17;16.77;;;;;;;;;;6303365;28;20067;-77
2021/12/03 22:42:05;;;;;;;24.85;16.55;;;;;;;;;;6281079;28;20599;-72
2021/12/03 22:45:07;;;;;;;27.27;17.45;;;;;;;;;;6294275;28;20663;-77
2021/12/03 22:48:23;;;;;;;26.20;16.55;;;;;;;;;;6289327;28;20430;-73
2021/12/03 22:54:44;;;;;;;26.35;15.98;;;;;;;;;;6296318;28;20360;-72
2021/12/03 22:57:46;;;;;;;26.95;16.23;;;;;;;;;;6288051;28;20044;-73
2021/12/03 23:00:53;;;;;;;29.35;16.20;;;;;;;;;;6279018;28;20096;-73
2021/12/03 23:03:56;;;;;;;28.13;16.17;;;;;;;;;;6292953;28;20063;-74
2021/12/03 23:06:58;;;;;;;25.88;15.50;;;;;;;;;;6278370;28;20183;-75
2021/12/03 23:09:59;;;;;;;28.13;15.88;;;;;;;;;;6287652;28;20068;-74
2021/12/03 23:13:02;;;;;;;25.95;16.17;;;;;;;;;;6291036;28;20048;-73
2021/12/03 23:16:04;;;;;;;29.83;17.08;;;;;;;;;;6281738;28;20045;-73
2021/12/03 23:19:07;;;;;;;29.33;16.98;;;;;;;;;;6291948;28;20165;-73
2021/12/03 23:22:08;;;;;;;29.05;17.27;;;;;;;;;;6299821;28;20125;-75
2021/12/03 23:25:10;;;;;;;31.30;16.60;;;;;;;;;;6289177;28;20166;-77
2021/12/03 23:28:14;;;;;;;28.25;16.70;;;;;;;;;;6297563;28;20056;-74
2021/12/03 23:31:18;;;;;;;30.70;16.33;;;;;;;;;;6274921;28;20049;-74
2021/12/03 23:34:22;;;;;;;30.50;16.88;;;;;;;;;;6290392;28;20053;-74
2021/12/03 23:37:24;;;;;;;;;;;;;;;;;;6289709;28;20055;-74
2021/12/03 23:40:25;;;;;;;27.70;16.60;;;;;;;;;;6290411;28;20011;-74
2021/12/03 23:43:27;;;;;;;30.40;16.95;;;;;;;;;;6298355;28;20531;-74
2021/12/03 23:46:29;;;;;;;27.77;17.02;;;;;;;;;;6289381;28;20036;-74
2021/12/03 23:49:32;;;;;;;27.55;16.50;;;;;;;;;;6298727;28;20044;-74
2021/12/03 23:52:34;;;;;;;26.90;15.50;;;;;;;;;;6284535;28;20130;-74
2021/12/03 23:55:37;;;;;;;28.25;15.75;;;;;;;;;;6290769;28;20174;-74
2021/12/03 23:58:40;;;;;;;28.48;14.90;;;;;;;;;;6310884;28;20044;-74
